Time;durP1;ratioP1;P1;durP2;ratioP2;P2;SDS_P1;SDS_P2;PMS_P1;PMS_P2;Temp;Humidity;BMP_temperature;BMP_pressure;BME280_temperature;BME280_humidity;BME280_pressure;Samples;Min_cycle;Max_cycle;Signal;HPM_P1;HPM_P2
2024/03/28 00:02:06;;;;;;;0.50;0.50;;;6.70;99.90;;;;;;5125032;27;20043;-77
2024/03/28 00:04:32;;;;;;;0.50;0.50;;;6.70;99.90;;;;;;5137387;27;20043;-80
2024/03/28 00:06:58;;;;;;;;;;;6.70;99.90;;;;;;5134790;27;20705;-78
2024/03/28 00:09:23;;;;;;;0.60;0.60;;;6.70;99.90;;;;;;5141968;27;19919;-77
2024/03/28 00:11:49;;;;;;;0.80;0.60;;;6.70;99.90;;;;;;5139258;27;20103;-78
2024/03/28 00:14:15;;;;;;;0.50;0.50;;;6.60;99.90;;;;;;5134243;27;20379;-78
2024/03/28 00:16:41;;;;;;;0.57;0.57;;;6.60;99.90;;;;;;5144014;27;20039;-78
2024/03/28 00:19:06;;;;;;;0.45;0.45;;;6.60;99.90;;;;;;5144647;27;20391;-78
2024/03/28 00:21:32;;;;;;;0.30;0.30;;;6.60;99.90;;;;;;5141511;27;20050;-78
2024/03/28 00:23:58;;;;;;;0.52;0.52;;;6.60;99.90;;;;;;5121411;27;20042;-77
2024/03/28 00:26:24;;;;;;;0.40;0.40;;;6.60;99.90;;;;;;5121486;27;20050;-77
2024/03/28 00:28:49;;;;;;;0.40;0.40;;;6.60;99.90;;;;;;5109314;27;20463;-77
2024/03/28 00:31:15;;;;;;;0.52;0.52;;;6.60;99.90;;;;;;5110715;27;20027;-77
2024/03/28 00:33:40;;;;;;;0.50;0.50;;;6.60;99.90;;;;;;5119487;27;20042;-75
2024/03/28 00:36:06;;;;;;;0.47;0.47;;;6.60;99.90;;;;;;5118845;27;20092;-75
2024/03/28 00:38:32;;;;;;;0.60;0.60;;;6.60;99.90;;;;;;5138882;27;20039;-75
2024/03/28 00:40:58;;;;;;;0.50;0.50;;;6.60;99.90;;;;;;5139186;27;20095;-75
2024/03/28 00:43:24;;;;;;;0.40;0.40;;;6.60;99.90;;;;;;5139626;27;20046;-76
2024/03/28 00:45:50;;;;;;;0.50;0.50;;;7.10;99.90;;;;;;5140844;27;20525;-76
2024/03/28 00:48:17;;;;;;;;;;;6.60;99.90;;;;;;5138596;27;20531;-75
2024/03/28 00:51:00;;;;;;;0.50;0.50;;;6.50;99.90;;;;;;5118301;27;19978;-75
2024/03/28 00:53:26;;;;;;;0.50;0.50;;;6.50;99.90;;;;;;5143723;27;20054;-75
2024/03/28 00:55:51;;;;;;;;;;;6.70;99.90;;;;;;5141693;27;20524;-75
2024/03/28 00:58:18;;;;;;;2.40;0.85;;;6.60;99.90;;;;;;5142026;27;19926;-75
2024/03/28 01:00:46;;;;;;;0.32;0.32;;;6.60;99.90;;;;;;5140176;27;20176;-75
2024/03/28 01:03:12;;;;;;;0.60;0.60;;;6.50;99.90;;;;;;5134195;27;20122;-75
2024/03/28 01:05:39;;;;;;;0.40;0.40;;;6.50;99.90;;;;;;5165715;27;20376;-75
2024/03/28 01:08:05;;;;;;;0.40;0.40;;;6.60;99.90;;;;;;5139200;27;20087;-75
2024/03/28 01:10:30;;;;;;;;;;;6.50;99.90;;;;;;5141163;27;20041;-75
2024/03/28 01:12:56;;;;;;;0.30;0.30;;;6.50;99.90;;;;;;5144021;27;19923;-75
2024/03/28 01:15:22;;;;;;;0.43;0.43;;;6.60;99.90;;;;;;5140416;27;20396;-75
2024/03/28 01:17:47;;;;;;;0.40;0.40;;;6.50;99.90;;;;;;5137221;27;20078;-74
2024/03/28 01:20:13;;;;;;;0.40;0.40;;;6.50;99.90;;;;;;5142052;27;20035;-74
2024/03/28 01:22:39;;;;;;;0.40;0.40;;;6.50;99.90;;;;;;5141489;27;20041;-74
2024/03/28 01:25:08;;;;;;;0.50;0.50;;;6.40;99.90;;;;;;5139932;27;20412;-75
2024/03/28 01:27:40;;;;;;;0.40;0.40;;;6.40;99.90;;;;;;5145449;27;20034;-75
2024/03/28 01:30:07;;;;;;;0.50;0.50;;;6.50;99.90;;;;;;5143457;27;20042;-75
2024/03/28 01:32:33;;;;;;;0.50;0.50;;;6.40;99.90;;;;;;5137673;27;20116;-75
2024/03/28 01:34:59;;;;;;;0.47;0.47;;;6.90;99.90;;;;;;5142273;27;20043;-75
2024/03/28 01:37:24;;;;;;;0.50;0.50;;;6.50;99.90;;;;;;5141142;27;20045;-75
2024/03/28 01:39:50;;;;;;;0.77;0.77;;;6.50;99.90;;;;;;5138686;27;20039;-75
2024/03/28 01:42:16;;;;;;;0.50;0.50;;;6.50;99.90;;;;;;5139868;27;20134;-74
2024/03/28 01:44:41;;;;;;;0.50;0.50;;;6.50;99.90;;;;;;5142563;27;20388;-75
2024/03/28 01:47:07;;;;;;;0.40;0.40;;;6.50;99.90;;;;;;5143897;27;20564;-75
2024/03/28 01:49:36;;;;;;;0.52;0.52;;;6.50;99.90;;;;;;5128325;27;20056;-74
2024/03/28 01:52:02;;;;;;;0.60;0.60;;;6.50;99.90;;;;;;5136439;27;20027;-75
2024/03/28 01:54:32;;;;;;;0.85;0.85;;;6.50;99.90;;;;;;5125027;27;20099;-75
2024/03/28 01:57:00;;;;;;;0.47;0.47;;;6.60;99.90;;;;;;5140383;27;20039;-75
2024/03/28 01:59:26;;;;;;;1.35;1.25;;;6.50;99.90;;;;;;5137220;27;20114;-75
2024/03/28 02:01:54;;;;;;;0.60;0.60;;;6.50;99.90;;;;;;5123311;27;20053;-75
2024/03/28 02:04:20;;;;;;;0.50;0.50;;;7.00;99.90;;;;;;5142224;27;20070;-74
2024/03/28 02:06:46;;;;;;;0.47;0.47;;;6.50;99.90;;;;;;5135183;27;20487;-74
2024/03/28 02:09:12;;;;;;;0.47;0.47;;;6.80;99.90;;;;;;5135513;27;20031;-74
2024/03/28 02:11:37;;;;;;;0.60;0.60;;;6.90;99.90;;;;;;5136480;27;20484;-74
2024/03/28 02:14:03;;;;;;;0.47;0.47;;;6.70;99.90;;;;;;5140725;27;20046;-74
2024/03/28 02:16:36;;;;;;;0.40;0.40;;;6.40;99.90;;;;;;5139542;27;20043;-75
2024/03/28 02:19:02;;;;;;;0.40;0.40;;;6.40;99.90;;;;;;5134621;27;20046;-75
2024/03/28 02:21:28;;;;;;;;;;;6.40;99.90;;;;;;5138379;27;20452;-75
2024/03/28 02:23:55;;;;;;;0.60;0.60;;;6.40;99.90;;;;;;5137639;27;20010;-75
2024/03/28 02:26:23;;;;;;;0.40;0.40;;;6.80;99.90;;;;;;5136755;27;20035;-75
2024/03/28 02:28:49;;;;;;;0.40;0.40;;;6.30;99.90;;;;;;5135776;27;20096;-74
2024/03/28 02:31:15;;;;;;;0.60;0.60;;;6.40;99.90;;;;;;5138959;27;20038;-74
2024/03/28 02:33:41;;;;;;;0.50;0.50;;;6.50;99.90;;;;;;5134858;27;20085;-74
2024/03/28 02:36:07;;;;;;;0.60;0.60;;;6.70;99.90;;;;;;5137212;27;20078;-73
2024/03/28 02:38:32;;;;;;;0.50;0.50;;;6.30;99.90;;;;;;5141033;27;20046;-74
2024/03/28 02:40:58;;;;;;;0.50;0.50;;;6.30;99.90;;;;;;5141889;27;20039;-74
2024/03/28 02:43:25;;;;;;;0.40;0.40;;;6.40;99.90;;;;;;5136397;27;20035;-74
2024/03/28 02:45:51;;;;;;;;;;;6.70;99.90;;;;;;5138632;27;20073;-74
2024/03/28 02:48:17;;;;;;;0.40;0.40;;;6.90;99.90;;;;;;5136264;27;19919;-74
2024/03/28 02:50:43;;;;;;;0.40;0.40;;;6.30;99.90;;;;;;5140837;27;20038;-75
2024/03/28 02:53:09;;;;;;;0.52;0.52;;;6.60;99.90;;;;;;5138987;27;20043;-75
2024/03/28 02:55:35;;;;;;;0.30;0.30;;;6.20;99.90;;;;;;5139271;27;20035;-79
2024/03/28 02:58:00;;;;;;;0.50;0.50;;;6.60;99.90;;;;;;5119314;27;20519;-79
2024/03/28 03:00:26;;;;;;;0.55;0.55;;;6.20;99.90;;;;;;5116424;27;20072;-78
2024/03/28 03:02:52;;;;;;;0.40;0.40;;;6.20;99.90;;;;;;5135273;27;20047;-78
2024/03/28 03:05:20;;;;;;;0.40;0.40;;;6.20;99.90;;;;;;5140824;27;20399;-78
2024/03/28 03:07:49;;;;;;;0.40;0.40;;;6.20;99.90;;;;;;5135948;27;20043;-78
2024/03/28 03:10:15;;;;;;;0.50;0.50;;;6.20;99.90;;;;;;5136474;27;20034;-79
2024/03/28 03:12:42;;;;;;;0.55;0.55;;;6.40;99.90;;;;;;5137391;27;20449;-79
2024/03/28 03:15:09;;;;;;;0.70;0.70;;;6.10;99.90;;;;;;5163471;27;20092;-78
2024/03/28 03:17:35;;;;;;;0.55;0.55;;;6.20;99.90;;;;;;5146159;27;20035;-78
2024/03/28 03:20:07;;;;;;;0.50;0.50;;;6.10;99.90;;;;;;5138332;27;20134;-78
2024/03/28 03:22:37;;;;;;;0.50;0.50;;;6.20;99.90;;;;;;5151895;27;20061;-78
2024/03/28 03:25:11;;;;;;;0.40;0.40;;;6.20;99.90;;;;;;5119335;27;20043;-78
2024/03/28 03:34:34;;;;;;;0.50;0.50;;;6.20;99.90;;;;;;5136955;27;20046;-77
2024/03/28 03:35:54;;;;;;;0.60;0.60;;;6.20;99.90;;;;;;5137616;27;20051;-78
2024/03/28 03:38:20;;;;;;;0.60;0.60;;;6.60;99.90;;;;;;5138602;27;20042;-77
2024/03/28 03:40:46;;;;;;;0.70;0.70;;;6.20;99.90;;;;;;5106602;27;20027;-77
2024/03/28 03:43:11;;;;;;;0.50;0.50;;;6.40;99.90;;;;;;5122540;27;20043;-77
2024/03/28 03:45:37;;;;;;;0.40;0.40;;;6.20;99.90;;;;;;5135996;27;20035;-78
2024/03/28 03:48:03;;;;;;;0.57;0.57;;;6.20;99.90;;;;;;5136738;27;20214;-78
2024/03/28 03:50:28;;;;;;;0.50;0.50;;;6.10;99.90;;;;;;5135269;27;20072;-78
2024/03/28 03:52:54;;;;;;;0.60;0.60;;;6.10;99.90;;;;;;5138433;27;20189;-79
2024/03/28 03:55:20;;;;;;;0.40;0.40;;;6.80;99.90;;;;;;5134527;27;20035;-78
2024/03/28 03:57:46;;;;;;;0.70;0.70;;;6.70;99.90;;;;;;5139018;27;20078;-78
2024/03/28 04:00:12;;;;;;;0.73;0.73;;;6.20;99.90;;;;;;5139912;27;20046;-79
2024/03/28 04:02:38;;;;;;;0.57;0.57;;;6.20;99.90;;;;;;5136752;27;20053;-78
2024/03/28 04:05:05;;;;;;;0.40;0.40;;;6.90;99.90;;;;;;5123273;27;20122;-78
2024/03/28 04:07:31;;;;;;;0.60;0.60;;;6.20;99.90;;;;;;5139313;27;20495;-79
2024/03/28 04:09:56;;;;;;;0.50;0.50;;;6.20;99.90;;;;;;5136219;27;20084;-79
2024/03/28 04:12:22;;;;;;;0.50;0.50;;;6.20;99.90;;;;;;5135162;27;20488;-79
2024/03/28 04:14:48;;;;;;;0.60;0.60;;;6.20;99.90;;;;;;5137855;27;20500;-79
2024/03/28 04:17:15;;;;;;;0.50;0.50;;;6.20;99.90;;;;;;5118085;27;20050;-78
2024/03/28 04:19:40;;;;;;;0.60;0.60;;;6.20;99.90;;;;;;5141790;27;20175;-78
2024/03/28 04:22:06;;;;;;;0.77;0.77;;;6.60;99.90;;;;;;5124763;27;20129;-80
2024/03/28 04:24:32;;;;;;;0.60;0.60;;;6.90;99.90;;;;;;5139726;27;20039;-79
2024/03/28 04:26:58;;;;;;;;;;;6.20;99.90;;;;;;5140582;27;20099;-80
2024/03/28 04:29:24;;;;;;;0.43;0.43;;;6.20;99.90;;;;;;5139099;27;20328;-80
2024/03/28 04:31:51;;;;;;;0.50;0.50;;;6.20;99.90;;;;;;5141727;27;20039;-78
2024/03/28 04:34:17;;;;;;;0.82;0.82;;;6.30;99.90;;;;;;5123919;27;20043;-78
2024/03/28 04:36:43;;;;;;;0.60;0.60;;;6.20;99.90;;;;;;5139771;27;20063;-78
2024/03/28 04:39:10;;;;;;;0.40;0.40;;;6.40;99.90;;;;;;5135857;27;20446;-77
2024/03/28 04:41:36;;;;;;;0.60;0.60;;;6.10;99.90;;;;;;5144786;27;20064;-77
2024/03/28 04:44:01;;;;;;;0.73;0.73;;;6.10;99.90;;;;;;5139026;27;20449;-77
2024/03/28 04:46:27;;;;;;;0.50;0.50;;;6.60;99.90;;;;;;5137815;27;20032;-78
2024/03/28 04:48:53;;;;;;;0.50;0.50;;;6.10;99.90;;;;;;5140070;27;20061;-77
2024/03/28 04:51:19;;;;;;;0.47;0.47;;;6.10;99.90;;;;;;5140381;27;20035;-78
2024/03/28 04:53:44;;;;;;;0.50;0.50;;;6.10;99.90;;;;;;5141852;27;20035;-78
2024/03/28 04:56:10;;;;;;;0.57;0.57;;;6.10;99.90;;;;;;5137549;27;20042;-78
2024/03/28 04:58:36;;;;;;;0.43;0.43;;;6.50;99.90;;;;;;5130023;27;20126;-78
2024/03/28 05:01:01;;;;;;;0.50;0.50;;;6.10;99.90;;;;;;5123054;27;20049;-78
2024/03/28 05:03:27;;;;;;;1.27;1.00;;;6.10;99.90;;;;;;5104449;27;20043;-77
2024/03/28 05:05:53;;;;;;;0.50;0.50;;;6.10;99.90;;;;;;5120558;27;20039;-77
2024/03/28 05:08:19;;;;;;;0.60;0.60;;;6.10;99.90;;;;;;5139371;27;20110;-78
2024/03/28 05:10:45;;;;;;;0.47;0.47;;;6.10;99.90;;;;;;5143043;27;20110;-78
2024/03/28 05:13:10;;;;;;;0.50;0.50;;;6.10;99.90;;;;;;5139724;27;20043;-77
2024/03/28 05:15:39;;;;;;;0.50;0.50;;;6.10;99.90;;;;;;5143955;27;20038;-76
2024/03/28 05:18:04;;;;;;;0.63;0.63;;;6.10;99.90;;;;;;5123131;27;20050;-75
2024/03/28 05:20:30;;;;;;;0.60;0.60;;;6.10;99.90;;;;;;5136788;27;20033;-75
2024/03/28 05:22:57;;;;;;;0.68;0.68;;;6.10;99.90;;;;;;5121905;27;20035;-75
2024/03/28 05:25:24;;;;;;;0.50;0.50;;;6.10;99.90;;;;;;5126008;27;20444;-74
2024/03/28 05:27:50;;;;;;;0.77;0.77;;;6.10;99.90;;;;;;5138878;27;20042;-74
2024/03/28 05:30:15;;;;;;;0.60;0.60;;;6.10;99.90;;;;;;5137097;27;20035;-76
2024/03/28 05:32:41;;;;;;;;;;;6.10;99.90;;;;;;5137738;27;20043;-76
2024/03/28 05:35:07;;;;;;;1.42;1.40;;;6.50;99.90;;;;;;5137862;27;20314;-75
2024/03/28 05:37:33;;;;;;;0.55;0.55;;;6.10;99.90;;;;;;5138713;27;20039;-75
2024/03/28 05:39:59;;;;;;;0.50;0.50;;;6.00;99.90;;;;;;5141560;27;20046;-75
2024/03/28 05:42:24;;;;;;;0.88;0.88;;;6.00;99.90;;;;;;5122376;27;20043;-75
2024/03/28 05:44:50;;;;;;;0.50;0.50;;;6.00;99.90;;;;;;5144965;27;20039;-75
2024/03/28 05:47:16;;;;;;;0.50;0.50;;;6.10;99.90;;;;;;5134258;27;20042;-75
2024/03/28 05:49:41;;;;;;;3.03;0.50;;;6.00;99.90;;;;;;5142716;27;20031;-76
2024/03/28 05:52:08;;;;;;;0.45;0.45;;;6.00;99.90;;;;;;5139192;27;20040;-75
2024/03/28 05:54:33;;;;;;;0.70;0.70;;;6.00;99.90;;;;;;5140323;27;20042;-75
2024/03/28 05:56:59;;;;;;;0.73;0.68;;;6.00;99.90;;;;;;5141276;27;20034;-75
2024/03/28 05:59:24;;;;;;;0.50;0.50;;;6.00;99.90;;;;;;5135698;27;20038;-75
2024/03/28 06:01:50;;;;;;;0.55;0.55;;;6.00;99.90;;;;;;5140856;27;20505;-76
2024/03/28 06:04:16;;;;;;;2.17;0.68;;;6.00;99.90;;;;;;5140137;27;20117;-77
2024/03/28 06:06:41;;;;;;;1.50;1.50;;;6.00;99.90;;;;;;5139653;27;20095;-74
2024/03/28 06:09:08;;;;;;;0.47;0.47;;;6.10;99.90;;;;;;5134419;27;20146;-74
2024/03/28 06:11:34;;;;;;;0.70;0.70;;;6.10;99.90;;;;;;5123842;27;20043;-74
2024/03/28 06:14:09;;;;;;;0.40;0.40;;;6.10;99.90;;;;;;5139815;27;20046;-75
2024/03/28 06:16:36;;;;;;;0.60;0.60;;;6.40;99.90;;;;;;5137882;27;20035;-74
2024/03/28 06:19:01;;;;;;;;;;;6.20;99.90;;;;;;5139269;27;20076;-74
2024/03/28 06:21:27;;;;;;;0.60;0.60;;;6.20;99.90;;;;;;5139797;27;19967;-75
2024/03/28 06:23:53;;;;;;;0.60;0.60;;;7.00;99.90;;;;;;5136200;27;20043;-75
2024/03/28 06:26:18;;;;;;;0.60;0.60;;;6.30;99.90;;;;;;5105050;27;20035;-77
2024/03/28 06:28:44;;;;;;;0.50;0.50;;;6.40;99.90;;;;;;5121724;27;20039;-77
2024/03/28 06:31:10;;;;;;;0.85;0.85;;;6.40;99.90;;;;;;5138134;27;20038;-77
2024/03/28 06:33:35;;;;;;;0.50;0.50;;;7.00;99.90;;;;;;5139654;27;20035;-77
2024/03/28 06:36:04;;;;;;;0.50;0.50;;;6.50;99.90;;;;;;5139544;27;20054;-78
2024/03/28 06:38:30;;;;;;;1.50;1.40;;;6.60;99.90;;;;;;5144705;27;20112;-78
2024/03/28 06:41:00;;;;;;;0.63;0.63;;;6.70;99.90;;;;;;5132355;27;20047;-77
2024/03/28 06:43:26;;;;;;;0.63;0.63;;;6.70;99.90;;;;;;5142527;27;20042;-77
2024/03/28 06:45:52;;;;;;;0.57;0.50;;;6.70;99.90;;;;;;5137847;27;20428;-77
2024/03/28 06:48:17;;;;;;;0.60;0.60;;;6.80;99.90;;;;;;5140915;27;20089;-78
2024/03/28 06:50:43;;;;;;;0.57;0.52;;;7.40;99.90;;;;;;5139362;27;20054;-77
2024/03/28 06:53:09;;;;;;;0.52;0.52;;;7.30;99.90;;;;;;5126475;27;20047;-77
2024/03/28 06:55:37;;;;;;;0.57;0.57;;;7.50;99.90;;;;;;5117489;27;20039;-78
2024/03/28 06:58:03;;;;;;;0.60;0.60;;;7.00;99.90;;;;;;5143985;27;20541;-78
2024/03/28 07:00:29;;;;;;;0.82;0.82;;;7.10;99.90;;;;;;5122641;27;20039;-78
2024/03/28 07:02:55;;;;;;;0.57;0.57;;;7.10;99.90;;;;;;5145683;27;20393;-78
2024/03/28 07:05:21;;;;;;;0.60;0.60;;;7.20;99.90;;;;;;5142168;27;20484;-78
2024/03/28 07:07:47;;;;;;;0.77;0.77;;;7.30;99.90;;;;;;5145005;27;20026;-77
2024/03/28 07:10:13;;;;;;;0.60;0.60;;;7.30;99.90;;;;;;5147157;27;20038;-78
2024/03/28 07:12:41;;;;;;;0.77;0.77;;;7.40;99.90;;;;;;5140128;27;20031;-78
2024/03/28 07:15:09;;;;;;;0.35;0.35;;;7.50;99.90;;;;;;5125827;27;20372;-78
2024/03/28 07:17:36;;;;;;;0.50;0.50;;;7.50;99.90;;;;;;5138304;27;20150;-80
2024/03/28 07:20:02;;;;;;;0.43;0.43;;;7.90;99.90;;;;;;5124923;27;20450;-79
2024/03/28 07:22:29;;;;;;;3.00;0.75;;;7.60;99.90;;;;;;5143903;27;20042;-78
2024/03/28 07:24:54;;;;;;;0.70;0.70;;;7.70;99.90;;;;;;5134105;27;20051;-78
2024/03/28 07:27:20;;;;;;;0.40;0.40;;;7.70;99.90;;;;;;5142627;27;20035;-78
2024/03/28 07:29:46;;;;;;;0.50;0.50;;;7.80;99.90;;;;;;5143426;27;20121;-79
2024/03/28 07:32:11;;;;;;;0.60;0.60;;;7.90;99.90;;;;;;5129844;27;20031;-76
2024/03/28 07:34:37;;;;;;;0.85;0.65;;;7.90;99.90;;;;;;5126453;27;20039;-76
2024/03/28 07:37:03;;;;;;;1.17;1.13;;;8.10;99.90;;;;;;5142698;27;20701;-77
2024/03/28 07:39:29;;;;;;;1.92;1.77;;;8.10;99.90;;;;;;5141385;27;20042;-77
2024/03/28 07:41:54;;;;;;;0.47;0.47;;;8.20;99.90;;;;;;5140026;27;20050;-77
2024/03/28 07:44:20;;;;;;;0.50;0.50;;;8.30;99.90;;;;;;5138735;27;20636;-74
2024/03/28 07:46:46;;;;;;;0.50;0.50;;;8.30;99.90;;;;;;5139749;27;20034;-76
2024/03/28 07:49:11;;;;;;;0.40;0.40;;;8.40;99.90;;;;;;5092921;27;20034;-76
2024/03/28 07:51:37;;;;;;;1.00;0.75;;;8.50;99.90;;;;;;5141873;27;20037;-75
2024/03/28 07:54:03;;;;;;;1.52;1.42;;;8.70;99.90;;;;;;5130011;27;20412;-75
2024/03/28 07:56:28;;;;;;;0.30;0.30;;;9.20;99.90;;;;;;5144071;27;20039;-75
2024/03/28 07:58:55;;;;;;;0.32;0.32;;;9.20;99.90;;;;;;5110047;27;20070;-75
2024/03/28 08:01:21;;;;;;;0.40;0.40;;;8.90;99.90;;;;;;5149846;27;20538;-75
2024/03/28 08:03:47;;;;;;;1.00;0.85;;;8.90;99.90;;;;;;5144927;27;20086;-75
2024/03/28 08:06:13;;;;;;;1.85;1.75;;;9.30;99.90;;;;;;5146064;27;20070;-76
2024/03/28 08:08:39;;;;;;;0.38;0.38;;;9.10;99.90;;;;;;5144579;27;20483;-75
2024/03/28 08:11:05;;;;;;;0.60;0.60;;;9.20;99.90;;;;;;5126899;27;20045;-75
2024/03/28 08:13:31;;;;;;;0.47;0.47;;;9.40;99.90;;;;;;5140385;27;20035;-76
2024/03/28 08:15:57;;;;;;;0.50;0.50;;;9.30;99.90;;;;;;5109719;27;20122;-75
2024/03/28 08:18:23;;;;;;;0.70;0.70;;;9.40;99.90;;;;;;5123982;27;20126;-76
2024/03/28 08:20:49;;;;;;;0.45;0.45;;;9.50;99.90;;;;;;5143528;27;20038;-75
2024/03/28 08:23:15;;;;;;;;;;;9.50;99.90;;;;;;5110306;27;21703;-75
2024/03/28 08:25:40;;;;;;;0.95;0.95;;;9.60;99.90;;;;;;5141733;27;19956;-75
2024/03/28 08:28:09;;;;;;;2.33;1.42;;;9.60;99.90;;;;;;5145018;27;20035;-76
2024/03/28 08:30:38;;;;;;;0.50;0.45;;;9.70;99.90;;;;;;5149552;27;20404;-75
2024/03/28 08:33:04;;;;;;;1.05;1.00;;;9.80;99.90;;;;;;5146410;27;20047;-76
2024/03/28 08:35:39;;;;;;;0.55;0.50;;;9.90;99.90;;;;;;5129827;27;20034;-75
2024/03/28 08:38:07;;;;;;;0.85;0.85;;;10.00;99.90;;;;;;5145645;27;20042;-75
2024/03/28 08:40:36;;;;;;;1.85;1.67;;;10.10;99.90;;;;;;5145062;27;20081;-75
2024/03/28 08:43:03;;;;;;;1.33;1.15;;;10.20;99.90;;;;;;5146032;27;20059;-75
2024/03/28 08:45:29;;;;;;;0.40;0.40;;;10.20;99.90;;;;;;5141416;27;20111;-75
2024/03/28 08:47:57;;;;;;;0.88;0.68;;;10.30;99.90;;;;;;5139257;27;20039;-75
2024/03/28 08:50:22;;;;;;;0.50;0.50;;;10.40;99.90;;;;;;5140532;27;20074;-75
2024/03/28 08:52:49;;;;;;;0.57;0.57;;;10.50;99.90;;;;;;5138933;27;20079;-75
2024/03/28 08:55:17;;;;;;;0.43;0.43;;;10.60;99.90;;;;;;5122986;27;20046;-74
2024/03/28 08:57:44;;;;;;;2.25;0.88;;;10.70;99.90;;;;;;5127101;27;20049;-75
2024/03/28 09:00:13;;;;;;;0.50;0.50;;;10.90;99.90;;;;;;5146918;27;20047;-75
2024/03/28 09:02:39;;;;;;;0.40;0.40;;;11.00;99.90;;;;;;5124937;27;20058;-75
2024/03/28 09:05:05;;;;;;;0.50;0.50;;;11.00;99.90;;;;;;5149316;27;20055;-75
2024/03/28 09:07:33;;;;;;;;;;;11.10;99.90;;;;;;5141635;27;20031;-75
2024/03/28 09:09:59;;;;;;;0.95;0.95;;;11.20;99.90;;;;;;5144298;27;19923;-76
2024/03/28 09:12:25;;;;;;;0.77;0.40;;;11.30;99.90;;;;;;5140839;27;20031;-75
2024/03/28 09:14:55;;;;;;;0.50;0.50;;;11.30;99.90;;;;;;5127194;27;20047;-76
2024/03/28 09:17:21;;;;;;;0.50;0.50;;;11.40;99.90;;;;;;5142996;27;20077;-75
2024/03/28 09:19:50;;;;;;;;;;;11.40;99.90;;;;;;5129098;27;20043;-75
2024/03/28 09:22:16;;;;;;;0.55;0.55;;;11.50;99.90;;;;;;5142854;27;19915;-75
2024/03/28 09:24:42;;;;;;;0.30;0.30;;;11.60;99.90;;;;;;5140971;27;20042;-76
2024/03/28 09:27:08;;;;;;;0.63;0.63;;;11.60;99.90;;;;;;5143954;27;20037;-75
2024/03/28 09:29:34;;;;;;;1.00;1.00;;;11.70;99.90;;;;;;5126728;27;20098;-76
2024/03/28 09:32:00;;;;;;;1.92;1.63;;;11.70;99.90;;;;;;5125537;27;20163;-76
2024/03/28 09:34:25;;;;;;;0.82;0.77;;;11.80;99.90;;;;;;5126963;27;20495;-76
2024/03/28 09:36:53;;;;;;;1.17;1.08;;;11.90;99.90;;;;;;5127715;27;20050;-76
2024/03/28 09:39:19;;;;;;;4.32;2.78;;;11.90;99.90;;;;;;5139850;27;20039;-76
2024/03/28 09:41:46;;;;;;;1.50;1.40;;;12.00;99.90;;;;;;5140626;27;20043;-76
2024/03/28 09:44:20;;;;;;;0.82;0.82;;;12.00;99.90;;;;;;5141316;27;20031;-76
2024/03/28 09:46:48;;;;;;;1.13;1.08;;;12.10;99.90;;;;;;5141707;27;20023;-76
2024/03/28 09:49:16;;;;;;;0.85;0.85;;;12.30;99.90;;;;;;5144765;27;20547;-76
2024/03/28 09:51:43;;;;;;;0.68;0.68;;;12.30;99.90;;;;;;5147184;27;20035;-76
2024/03/28 09:54:09;;;;;;;0.85;0.60;;;12.30;99.90;;;;;;5138826;27;20043;-76
2024/03/28 09:56:35;;;;;;;;;;;12.30;99.90;;;;;;5139091;27;20047;-76
2024/03/28 09:59:02;;;;;;;0.70;0.70;;;12.40;99.90;;;;;;5143112;27;19921;-76
2024/03/28 10:01:29;;;;;;;1.25;0.85;;;12.40;99.90;;;;;;5144756;27;20579;-76
2024/03/28 10:04:03;;;;;;;11.80;1.85;;;12.40;99.90;;;;;;5142659;27;20094;-76
2024/03/28 10:06:29;;;;;;;1.20;0.85;;;12.40;99.90;;;;;;5144480;27;20057;-76
2024/03/28 10:08:55;;;;;;;;;;;12.30;99.90;;;;;;5144302;27;20099;-76
2024/03/28 10:11:21;;;;;;;1.85;1.05;;;12.30;99.90;;;;;;5145112;27;19930;-76
2024/03/28 10:13:46;;;;;;;0.60;0.60;;;12.10;99.90;;;;;;5123232;27;20043;-76
2024/03/28 10:16:15;;;;;;;1.20;1.15;;;12.00;99.90;;;;;;5139548;27;20070;-76
2024/03/28 10:18:42;;;;;;;0.22;0.22;;;11.90;99.90;;;;;;5142421;27;20106;-76
2024/03/28 10:21:11;;;;;;;0.50;0.50;;;12.00;99.90;;;;;;5141727;27;20042;-76
2024/03/28 10:23:39;;;;;;;0.55;0.55;;;12.20;99.90;;;;;;5141917;27;20469;-76
2024/03/28 10:26:09;;;;;;;1.13;1.13;;;12.40;99.90;;;;;;5139748;27;20446;-76
2024/03/28 10:28:36;;;;;;;1.35;1.33;;;12.50;99.90;;;;;;5141738;27;20114;-76
2024/03/28 10:31:04;;;;;;;0.47;0.47;;;12.70;99.90;;;;;;5138347;27;20039;-76
2024/03/28 10:33:33;;;;;;;0.50;0.50;;;12.70;99.90;;;;;;5132688;27;20516;-76
2024/03/28 10:36:01;;;;;;;2.05;1.52;;;12.60;99.90;;;;;;5145311;27;20051;-76
2024/03/28 10:38:28;;;;;;;1.42;1.33;;;12.50;99.90;;;;;;5141838;27;20495;-76
2024/03/28 10:40:55;;;;;;;0.90;0.68;;;12.40;99.90;;;;;;5104929;27;20567;-76
2024/03/28 10:43:25;;;;;;;0.65;0.60;;;12.30;99.90;;;;;;5146206;27;20033;-76
2024/03/28 10:45:52;;;;;;;0.45;0.45;;;12.20;99.90;;;;;;5121585;27;20043;-76
2024/03/28 10:48:19;;;;;;;0.68;0.68;;;12.20;99.90;;;;;;5126406;27;20046;-76
2024/03/28 10:51:17;;;;;;;1.02;0.93;;;12.30;99.90;;;;;;5124018;27;20469;-76
2024/03/28 10:53:51;;;;;;;;;;;12.40;99.90;;;;;;5128081;27;20039;-76
2024/03/28 10:56:18;;;;;;;0.57;0.43;;;12.50;99.90;;;;;;5134162;27;20330;-76
2024/03/28 10:58:46;;;;;;;0.30;0.30;;;12.50;99.90;;;;;;5124042;27;20039;-76
2024/03/28 11:01:12;;;;;;;0.45;0.45;;;12.50;99.90;;;;;;5124757;27;20035;-76
2024/03/28 11:03:39;;;;;;;0.47;0.47;;;12.60;99.90;;;;;;5123809;27;20051;-76
2024/03/28 11:06:07;;;;;;;0.60;0.60;;;12.60;99.90;;;;;;5136839;27;20162;-76
2024/03/28 11:08:33;;;;;;;1.05;0.63;;;12.50;99.90;;;;;;5140359;27;20059;-76
2024/03/28 11:11:00;;;;;;;0.90;0.65;;;12.50;99.90;;;;;;5147083;27;20039;-76
2024/03/28 11:13:27;;;;;;;0.30;0.30;;;12.50;99.90;;;;;;5141151;27;20100;-76
2024/03/28 11:16:12;;;;;;;0.47;0.47;;;12.40;99.90;;;;;;5122724;27;20516;-76
2024/03/28 11:18:39;;;;;;;0.22;0.22;;;12.30;99.90;;;;;;5123788;27;20114;-76
2024/03/28 11:21:06;;;;;;;0.47;0.38;;;12.30;99.90;;;;;;5139936;27;20381;-76
2024/03/28 11:23:35;;;;;;;0.30;0.30;;;12.20;99.90;;;;;;5122190;27;22056;-76
2024/03/28 11:26:05;;;;;;;0.30;0.30;;;12.10;99.90;;;;;;5141711;27;20050;-76
2024/03/28 11:28:31;;;;;;;0.30;0.30;;;12.00;99.90;;;;;;5120671;27;20034;-76
2024/03/28 11:30:57;;;;;;;0.30;0.30;;;11.80;99.90;;;;;;5139817;27;20064;-76
2024/03/28 11:33:39;;;;;;;0.77;0.75;;;11.50;99.90;;;;;;5137976;27;20419;-76
2024/03/28 11:36:07;;;;;;;0.40;0.40;;;11.20;99.90;;;;;;5133937;27;20050;-76
2024/03/28 11:38:34;;;;;;;0.75;0.50;;;10.90;99.90;;;;;;5139206;27;20039;-76
2024/03/28 11:41:01;;;;;;;0.38;0.38;;;10.50;99.90;;;;;;5137429;27;20067;-76
2024/03/28 11:43:28;;;;;;;0.50;0.50;;;10.30;99.90;;;;;;5136617;27;20035;-76
2024/03/28 11:45:53;;;;;;;0.82;0.82;;;10.00;99.90;;;;;;5141231;27;20038;-75
2024/03/28 11:48:23;;;;;;;0.40;0.40;;;9.80;99.90;;;;;;5144644;27;20031;-75
2024/03/28 11:50:50;;;;;;;0.73;0.73;;;9.60;99.90;;;;;;5122812;27;20087;-74
2024/03/28 11:53:16;;;;;;;0.40;0.40;;;9.50;99.90;;;;;;5126340;27;20034;-75
2024/03/28 11:55:43;;;;;;;0.30;0.30;;;8.90;99.90;;;;;;5141379;27;20034;-75
2024/03/28 11:58:14;;;;;;;0.75;0.75;;;8.80;99.90;;;;;;5143385;27;20394;-75
2024/03/28 12:00:40;;;;;;;0.40;0.40;;;8.50;99.90;;;;;;5142507;27;20479;-75
2024/03/28 12:03:06;;;;;;;0.50;0.50;;;8.20;99.90;;;;;;5142979;27;20058;-74
2024/03/28 12:05:32;;;;;;;0.80;0.55;;;8.00;99.90;;;;;;5140398;27;20051;-75
2024/03/28 12:07:59;;;;;;;0.40;0.40;;;7.90;99.90;;;;;;5141007;27;20089;-75
2024/03/28 12:10:24;;;;;;;0.50;0.50;;;7.80;99.90;;;;;;5139346;27;20122;-74
2024/03/28 12:12:51;;;;;;;0.50;0.50;;;7.70;99.90;;;;;;5143743;27;20129;-75
2024/03/28 12:15:16;;;;;;;;;;;7.60;99.90;;;;;;5143749;27;20047;-75
2024/03/28 12:17:43;;;;;;;0.50;0.50;;;7.50;99.90;;;;;;5141311;27;19923;-74
2024/03/28 12:20:09;;;;;;;;;;;7.40;99.90;;;;;;5142367;27;20050;-74
2024/03/28 12:22:37;;;;;;;0.60;0.60;;;7.30;99.90;;;;;;5141788;27;19919;-74
2024/03/28 12:25:12;;;;;;;0.70;0.70;;;7.30;99.90;;;;;;5144438;27;20520;-74
2024/03/28 12:27:40;;;;;;;0.70;0.70;;;7.20;99.90;;;;;;5144558;27;20043;-74
2024/03/28 12:30:13;;;;;;;0.50;0.50;;;7.10;99.90;;;;;;5121873;27;20119;-74
2024/03/28 12:32:39;;;;;;;0.50;0.50;;;7.10;99.90;;;;;;5118037;27;20472;-74
2024/03/28 12:35:06;;;;;;;0.50;0.50;;;7.00;99.90;;;;;;5143895;27;20381;-74
2024/03/28 12:37:36;;;;;;;0.50;0.50;;;7.10;99.90;;;;;;5142972;27;20084;-74
2024/03/28 12:40:09;;;;;;;0.50;0.50;;;7.10;99.90;;;;;;5142017;27;20409;-74
2024/03/28 12:42:36;;;;;;;0.43;0.43;;;7.10;99.90;;;;;;5125814;27;20125;-74
2024/03/28 12:45:19;;;;;;;0.50;0.50;;;7.10;99.90;;;;;;5144429;27;20122;-74
2024/03/28 12:47:46;;;;;;;2.17;1.88;;;7.20;99.90;;;;;;5149354;27;20045;-74
2024/03/28 12:50:17;;;;;;;0.40;0.40;;;7.20;99.90;;;;;;5138529;27;20031;-74
2024/03/28 12:52:53;;;;;;;0.50;0.50;;;7.20;99.90;;;;;;5145148;27;20091;-75
2024/03/28 12:55:19;;;;;;;0.60;0.60;;;7.30;99.90;;;;;;5131085;27;20519;-74
2024/03/28 12:57:47;;;;;;;0.55;0.55;;;7.30;99.90;;;;;;5122134;27;20441;-74
2024/03/28 13:00:14;;;;;;;0.60;0.60;;;7.40;99.90;;;;;;5148885;27;20042;-74
2024/03/28 13:02:41;;;;;;;0.50;0.50;;;7.50;99.90;;;;;;5147836;27;20047;-74